Wetterstation Rottenburg Seebronn / 442m msl / http://mut-lambrecht.de
LETZTE AKTUALISIERUNG UM: 06:15 DATUM: Juli 01 2022, time of next update: 06:20
Aktuelles Wetterovercast - rain showers; Cumulonimbus clouds observed Aktuelle Temperatur 14.2°C (57.6°F), Apparent temp 13.9°C
Höchsttemperatur (seit Mitternacht)16.6°C um: 00:00 Tiefsttemperatur (seit Mitternacht)14.1°C um: 05:55
Windgeschwindigkeit (10 Minuten )5.7 kmh (3.1 kts) Windrichtung (Dir) (10 Minuten )W (278°)
Windchill Temperatur 14.2°C Windspitzen (letzte Std)16.6 kmh (9.0 kts) um: 05:27
Windspitzen (seit Mitternacht)22.5 kmh (12.2 kts) um: 00:25 Höchstes Windmittel / Minute (seit Mitternacht)9.8 kmh (5.3 kts) um: 00:37
Regenmenge (letzte Std)0.0 mm Regenmenge (seit Mitternacht)0.0 mm (0.00 in.)---
Regenmenge diesen Monat 0.0 mm (0.00 in.) Regenmenge seit Jahresbeginn 20.0 mm (0.79 in.)
Höchste Regenmenge pro Minute (letzte Std)0.0 mm/min Höchste Regenmenge pro Stunde (letzte 6 Std)0.0 mm/stunde
Regenmenge Gestern 0.0 mm Taupunkt 11.4°C (Wet Bulb :12.7°C )
Luftfeuchtigkeit 83 %, Humidex 16.1°C Aktueller Luftdruck (auf Meereshöhe bezogen)1017.8 hPa
Luftdrucktendenz +0.7 hPa (letzte Std) Trend (letzte 1 Std)leicht steigend
Luftdrucktendenz (letzte 12 Std)+5.6 hPa Luftdrucktendenz (letzte 6 Std)+1.9 hPa


Grafische Darstellung der letzten 24 Stunden.
Grafische Darstellung der letzten 48 Stunden.
Grafische Darstellung der letzten 72 Stunden.
Grafische Darstellung der letzten month.


Weather report/warning/Metars

Stuttgart-Echterdingen, Germany (EDDS) 48-41N 009-13E 391M
Jun 30, 2022 - 11:50 PM EDT / 2022.07.01 0350 UTC
Wind: from the WNW (290 degrees) at 9 MPH (8 KT):0
Visibility: greater than 7 mile(s):0
Sky conditions: overcast
Weather: rain showers; Cumulonimbus clouds observed
Temperature: 55 F (13 C)
Dew Point: 51 F (11 C)
Relative Humidity: 87%
Pressure (altimeter): 30.06 in. Hg (1018 hPa)
ob: EDDS 010350Z AUTO 29008KT 9999 SHRA BKN014 OVC031 FEW///CB 13/11 Q1018
cycle: 4
Karlsruhe, Baden Wurttemberg, Germany (EDSB) 48-46-43N 008-04-47E
Jun 30, 2022 - 11:50 PM EDT / 2022.07.01 0350 UTC
Wind: from the W (260 degrees) at 5 MPH (4 KT) (direction variable):0
Visibility: greater than 7 mile(s):0
Sky conditions: overcast
Temperature: 57 F (14 C)
Dew Point: 55 F (13 C)
Relative Humidity: 93%
Pressure (altimeter): 30.06 in. Hg (1018 hPa)
ob: EDSB 010350Z 26004KT 230V310 9999 BKN013 BKN038 OVC051 14/13 Q1018
cycle: 4
Lahr, CAN-AFB, Germany (EDTL) 48-22-09N 007-49-40E
Jun 30, 2022 - 01:50 PM EDT / 2022.06.30 1750 UTC
Wind: from the N (350 degrees) at 12 MPH (10 KT) (direction variable):0
Visibility: greater than 7 mile(s):0
Sky conditions: mostly cloudy
Weather: light rain; showers in the vicinity; Towering cumulus clouds observed
Temperature: 69 F (21 C)
Dew Point: 66 F (19 C)
Relative Humidity: 88%
Pressure (altimeter): 29.85 in. Hg (1011 hPa)
ob: EDTL 301750Z 35010KT 290V030 9999 -RA VCSH BKN100TCU 21/19 Q1011
cycle: 18
Laupheim, Germany (ETHL) 48-13N 009-55E 550M
Jun 30, 2022 - 11:20 PM EDT / 2022.07.01 0320 UTC
Wind: from the W (270 degrees) at 5 MPH (4 KT):0
Visibility: greater than 7 mile(s):0
Temperature: 59 F (15 C)
Dew Point: 57 F (14 C)
Relative Humidity: 93%
Pressure (altimeter): 30.00 in. Hg (1016 hPa)
ob: ETHL 010320Z AUTO 27004KT 9999 // ////// 15/14 Q1016 ///
cycle: 3


Klicken Sie hier, um zu den Durchschnitts-, Extrem-, Monats- oder Tageswerten zu gelangen


Die Wetterdaten werden alle 5 Minuten aktualisiert.
Die 3 stündige Echtzeitgrafik wird jede Minute aktualisiert.
Bei der 3 stündige Echtzeitgrafik sind derzeit die Skalenfarben von Winddurchschnitt u. Windböen vertauscht. (Softwarebug)

Drücken Sie gegebenenfalls auf "Aktualisieren" in Ihrem Browser, um die aktuellsten Daten zu erhalten.